CYPR/YPR METAR and TAF weather

Enter ICAO airport designator
Station Type Date Time Source
CYPR METAR 2019/05/23 18:44 UTC NOAA

CYPR 231844Z AUTO 28005KT 180V310 9SM -RA SCT008 SCT014 OVC030 10/08 A3014 RMK SLP207


Station Type Date Time Source
CYPR Decoded METAR 2019/05/23 18:44 UTC NOAA

Prince Rupert, B. C., Canada (CYPR) 54-18N 130-26W 34M
May 23, 2019 - 02:44 PM EDT / 2019.05.23 1844 UTC
Wind: from the W (280 degrees) at 6 MPH (5 KT) (direction variable):0
Visibility: 9 mile(s):0
Sky conditions: overcast
Weather: light rain
Temperature: 50 F (10 C)
Dew Point: 46 F (8 C)
Relative Humidity: 87%
Pressure (altimeter): 30.14 in. Hg (1020 hPa)
ob: CYPR 231844Z AUTO 28005KT 180V310 9SM -RA SCT008 SCT014 OVC030 10/08 A3014 RMK SLP207
cycle: 18

Station Type Date Time Source
CYPR TAF 2019/05/23 19:39 UTC NOAA

TAF TAF CYPR 231838Z 2319/2407 VRB03KT P6SM SCT020 OVC040
TEMPO 2319/2407 P6SM -RA BKN020 OVC040
BECMG 2319/2321 28008KT
RMK FCST BASED ON AUTO OBS. NXT FCST BY 240100Z

Example: see airport list